Terminal Aerodrome Forecast
Issued by NWS Dodge City, KS

Home | Current Version | Previous Version | Text Only | Print | Product List | Glossary On
Versions: 1 2 3 4 5 6 7 8 9 10 11 12 13 14 15
000
FTUS43 KDDC 282320
TAFDDC
TAF
KDDC 282320Z 2900/2924 11008KT P6SM SKC
     FM290700 08013KT P6SM -TSRA OVC015CB
     FM291400 07014KT 3SM SHRA BR OVC003=

USA.gov is the U.S. government's official web portal to all federal, state and local government web resources and services.